sensor_id;sensor_type;location;lat;lon;timestamp;pressure;altitude;pressure_sealevel;temperature;humidity
42105;BME280;61464;51.472;5.712;2022-11-15T02:03:49;100558.16;;;8.68;100.00
42105;BME280;61464;51.472;5.712;2022-11-15T02:06:26;100564.22;;;8.76;100.00
42105;BME280;61464;51.472;5.712;2022-11-15T02:09:26;100559.50;;;8.72;100.00
42105;BME280;61464;51.472;5.712;2022-11-15T02:12:14;100559.84;;;8.77;100.00
42105;BME280;61464;51.472;5.712;2022-11-15T02:57:45;100533.66;;;9.49;100.00
42105;BME280;61464;51.472;5.712;2022-11-15T03:00:19;100525.13;;;9.56;100.00
42105;BME280;61464;51.472;5.712;2022-11-15T03:03:33;100527.34;;;9.51;100.00
42105;BME280;61464;51.472;5.712;2022-11-15T03:06:36;100512.94;;;9.49;100.00
42105;BME280;61464;51.472;5.712;2022-11-15T03:12:48;100509.72;;;9.55;100.00
42105;BME280;61464;51.472;5.712;2022-11-15T03:15:36;100514.75;;;9.56;100.00
42105;BME280;61464;51.472;5.712;2022-11-15T03:18:17;100510.38;;;9.57;100.00
42105;BME280;61464;51.472;5.712;2022-11-15T03:20:49;100512.31;;;9.63;100.00
42105;BME280;61464;51.472;5.712;2022-11-15T03:23:27;100512.03;;;9.66;100.00
42105;BME280;61464;51.472;5.712;2022-11-15T03:26:00;100509.09;;;9.69;100.00
42105;BME280;61464;51.472;5.712;2022-11-15T03:28:53;100507.31;;;9.70;100.00
42105;BME280;61464;51.472;5.712;2022-11-15T03:31:35;100512.38;;;9.79;100.00
42105;BME280;61464;51.472;5.712;2022-11-15T03:34:39;100504.91;;;9.76;100.00
42105;BME280;61464;51.472;5.712;2022-11-15T03:48:13;100529.22;;;9.83;100.00
42105;BME280;61464;51.472;5.712;2022-11-15T03:54:34;100515.47;;;9.83;100.00
42105;BME280;61464;51.472;5.712;2022-11-15T03:57:53;100514.47;;;9.84;100.00
42105;BME280;61464;51.472;5.712;2022-11-15T04:00:45;100517.56;;;9.87;100.00
42105;BME280;61464;51.472;5.712;2022-11-15T04:36:12;100512.53;;;9.94;100.00
42105;BME280;61464;51.472;5.712;2022-11-15T04:38:59;100508.97;;;9.87;100.00
42105;BME280;61464;51.472;5.712;2022-11-15T04:42:10;100524.06;;;9.92;100.00
42105;BME280;61464;51.472;5.712;2022-11-15T04:45:36;100511.25;;;9.90;100.00
42105;BME280;61464;51.472;5.712;2022-11-15T04:48:16;100517.41;;;9.89;100.00
42105;BME280;61464;51.472;5.712;2022-11-15T04:51:14;100517.72;;;9.86;100.00
42105;BME280;61464;51.472;5.712;2022-11-15T04:53:51;100515.78;;;9.88;100.00
42105;BME280;61464;51.472;5.712;2022-11-15T04:56:45;100518.22;;;9.90;100.00
42105;BME280;61464;51.472;5.712;2022-11-15T04:59:33;100523.56;;;9.88;100.00
42105;BME280;61464;51.472;5.712;2022-11-15T05:02:24;100518.56;;;9.86;100.00
42105;BME280;61464;51.472;5.712;2022-11-15T05:12:39;100511.75;;;10.18;100.00
42105;BME280;61464;51.472;5.712;2022-11-15T05:15:49;100512.88;;;9.91;100.00
42105;BME280;61464;51.472;5.712;2022-11-15T05:18:29;100507.34;;;9.86;100.00
42105;BME280;61464;51.472;5.712;2022-11-15T05:21:13;100514.34;;;9.94;100.00
42105;BME280;61464;51.472;5.712;2022-11-15T05:23:48;100508.97;;;9.87;100.00
42105;BME280;61464;51.472;5.712;2022-11-15T05:26:19;100496.31;;;9.84;100.00
42105;BME280;61464;51.472;5.712;2022-11-15T05:28:54;100493.75;;;9.92;100.00
42105;BME280;61464;51.472;5.712;2022-11-15T05:31:32;100494.56;;;9.93;100.00
42105;BME280;61464;51.472;5.712;2022-11-15T05:34:29;100499.75;;;9.93;100.00
42105;BME280;61464;51.472;5.712;2022-11-15T05:36:58;100491.47;;;9.89;100.00
42105;BME280;61464;51.472;5.712;2022-11-15T05:39:30;100487.91;;;9.90;100.00
42105;BME280;61464;51.472;5.712;2022-11-15T05:42:13;100489.69;;;9.90;100.00
42105;BME280;61464;51.472;5.712;2022-11-15T05:44:50;100499.25;;;9.89;100.00
42105;BME280;61464;51.472;5.712;2022-11-15T05:47:37;100489.84;;;9.88;100.00
42105;BME280;61464;51.472;5.712;2022-11-15T05:50:29;100491.97;;;9.93;100.00
42105;BME280;61464;51.472;5.712;2022-11-15T05:53:21;100491.66;;;9.96;100.00
42105;BME280;61464;51.472;5.712;2022-11-15T05:55:49;100496.03;;;9.95;100.00
42105;BME280;61464;51.472;5.712;2022-11-15T05:58:32;100488.75;;;9.91;100.00
42105;BME280;61464;51.472;5.712;2022-11-15T06:24:43;100515.16;;;10.02;100.00
42105;BME280;61464;51.472;5.712;2022-11-15T06:27:11;100510.16;;;10.01;100.00
42105;BME280;61464;51.472;5.712;2022-11-15T06:29:37;100508.50;;;10.00;100.00
42105;BME280;61464;51.472;5.712;2022-11-15T06:32:03;100505.75;;;10.10;100.00
42105;BME280;61464;51.472;5.712;2022-11-15T06:34:29;100502.19;;;10.02;100.00
42105;BME280;61464;51.472;5.712;2022-11-15T06:36:55;100514.34;;;10.02;100.00
42105;BME280;61464;51.472;5.712;2022-11-15T06:39:21;100518.72;;;10.01;100.00
42105;BME280;61464;51.472;5.712;2022-11-15T06:41:47;100525.53;;;10.02;100.00
42105;BME280;61464;51.472;5.712;2022-11-15T06:44:13;100520.97;;;9.96;100.00
42105;BME280;61464;51.472;5.712;2022-11-15T06:46:39;100521.31;;;9.93;100.00
42105;BME280;61464;51.472;5.712;2022-11-15T06:49:05;100516.59;;;9.89;100.00
42105;BME280;61464;51.472;5.712;2022-11-15T06:51:31;100530.53;;;9.87;100.00
42105;BME280;61464;51.472;5.712;2022-11-15T06:53:56;100526.47;;;9.85;100.00
42105;BME280;61464;51.472;5.712;2022-11-15T06:56:22;100528.41;;;9.83;100.00
42105;BME280;61464;51.472;5.712;2022-11-15T06:58:48;100524.19;;;9.82;100.00
42105;BME280;61464;51.472;5.712;2022-11-15T07:01:14;100526.31;;;9.78;100.00
42105;BME280;61464;51.472;5.712;2022-11-15T07:03:42;100535.84;;;9.78;100.00
42105;BME280;61464;51.472;5.712;2022-11-15T07:06:09;100528.41;;;9.75;100.00
42105;BME280;61464;51.472;5.712;2022-11-15T07:08:37;100530.50;;;9.71;100.00
42105;BME280;61464;51.472;5.712;2022-11-15T07:11:07;100545.25;;;9.71;100.00
42105;BME280;61464;51.472;5.712;2022-11-15T07:13:34;100540.22;;;9.69;100.00
42105;BME280;61464;51.472;5.712;2022-11-15T07:16:04;100542.00;;;9.69;100.00
42105;BME280;61464;51.472;5.712;2022-11-15T07:18:36;100548.13;;;9.67;100.00
42105;BME280;61464;51.472;5.712;2022-11-15T07:21:09;100554.16;;;9.68;100.00
42105;BME280;61464;51.472;5.712;2022-11-15T07:23:41;100555.25;;;9.65;100.00
42105;BME280;61464;51.472;5.712;2022-11-15T07:26:08;100555.25;;;9.65;100.00
42105;BME280;61464;51.472;5.712;2022-11-15T07:28:34;100555.59;;;9.62;100.00
42105;BME280;61464;51.472;5.712;2022-11-15T07:31:06;100560.75;;;9.62;100.00
42105;BME280;61464;51.472;5.712;2022-11-15T07:33:33;100557.38;;;9.62;100.00
42105;BME280;61464;51.472;5.712;2022-11-15T07:36:04;100556.06;;;9.58;100.00
42105;BME280;61464;51.472;5.712;2022-11-15T07:38:31;100565.16;;;9.62;100.00
42105;BME280;61464;51.472;5.712;2022-11-15T07:41:03;100566.75;;;9.63;100.00
42105;BME280;61464;51.472;5.712;2022-11-15T07:43:36;100557.00;;;9.57;100.00
42105;BME280;61464;51.472;5.712;2022-11-15T07:46:07;100566.09;;;9.61;100.00
42105;BME280;61464;51.472;5.712;2022-11-15T07:48:36;100572.56;;;9.57;100.00
42105;BME280;61464;51.472;5.712;2022-11-15T07:59:12;100563.50;;;9.61;100.00
42105;BME280;61464;51.472;5.712;2022-11-15T08:02:09;100562.84;;;9.59;100.00
42105;BME280;61464;51.472;5.712;2022-11-15T08:04:45;100560.59;;;9.56;100.00
42105;BME280;61464;51.472;5.712;2022-11-15T08:07:17;100556.88;;;9.58;100.00
42105;BME280;61464;51.472;5.712;2022-11-15T08:09:43;100551.53;;;9.60;100.00
42105;BME280;61464;51.472;5.712;2022-11-15T08:12:11;100545.88;;;9.64;100.00
42105;BME280;61464;51.472;5.712;2022-11-15T08:14:57;100559.97;;;9.70;100.00
42105;BME280;61464;51.472;5.712;2022-11-15T08:17:26;100557.53;;;9.69;100.00
42105;BME280;61464;51.472;5.712;2022-11-15T08:20:19;100556.56;;;9.70;100.00
42105;BME280;61464;51.472;5.712;2022-11-15T08:23:18;100565.16;;;9.70;100.00
42105;BME280;61464;51.472;5.712;2022-11-15T08:26:45;100564.84;;;9.73;100.00
42105;BME280;61464;51.472;5.712;2022-11-15T08:30:01;100565.50;;;9.75;100.00
42105;BME280;61464;51.472;5.712;2022-11-15T08:37:01;100558.50;;;9.67;100.00
42105;BME280;61464;51.472;5.712;2022-11-15T08:39:42;100558.69;;;9.66;100.00
42105;BME280;61464;51.472;5.712;2022-11-15T08:42:19;100561.75;;;9.70;100.00
42105;BME280;61464;51.472;5.712;2022-11-15T08:44:50;100561.47;;;9.81;100.00
42105;BME280;61464;51.472;5.712;2022-11-15T08:47:16;100551.72;;;9.75;100.00
42105;BME280;61464;51.472;5.712;2022-11-15T08:49:44;100548.47;;;9.73;100.00
42105;BME280;61464;51.472;5.712;2022-11-15T08:52:18;100546.06;;;9.79;100.00
42105;BME280;61464;51.472;5.712;2022-11-15T08:54:49;100546.59;;;9.91;100.00
42105;BME280;61464;51.472;5.712;2022-11-15T08:57:37;100545.94;;;9.89;100.00
42105;BME280;61464;51.472;5.712;2022-11-15T09:00:14;100536.50;;;9.88;100.00
42105;BME280;61464;51.472;5.712;2022-11-15T09:08:23;100532.81;;;9.91;100.00
42105;BME280;61464;51.472;5.712;2022-11-15T09:11:17;100529.59;;;10.05;100.00
42105;BME280;61464;51.472;5.712;2022-11-15T09:13:47;100534.44;;;10.08;100.00
42105;BME280;61464;51.472;5.712;2022-11-15T09:17:09;100530.28;;;10.32;100.00
42105;BME280;61464;51.472;5.712;2022-11-15T09:20:02;100523.78;;;10.19;100.00
42105;BME280;61464;51.472;5.712;2022-11-15T09:22:30;100518.09;;;10.16;100.00
42105;BME280;61464;51.472;5.712;2022-11-15T09:24:59;100509.81;;;10.20;100.00
42105;BME280;61464;51.472;5.712;2022-11-15T09:50:54;100487.28;;;10.54;100.00
42105;BME280;61464;51.472;5.712;2022-11-15T09:56:20;100471.25;;;10.50;100.00
42105;BME280;61464;51.472;5.712;2022-11-15T10:09:15;100478.41;;;10.32;100.00
42105;BME280;61464;51.472;5.712;2022-11-15T10:15:23;100471.91;;;10.36;100.00
42105;BME280;61464;51.472;5.712;2022-11-15T10:24:27;100468.31;;;10.53;100.00
42105;BME280;61464;51.472;5.712;2022-11-15T10:26:56;100458.28;;;10.50;100.00
42105;BME280;61464;51.472;5.712;2022-11-15T10:29:30;100456.97;;;10.54;100.00
42105;BME280;61464;51.472;5.712;2022-11-15T10:40:40;100446.09;;;10.42;100.00
42105;BME280;61464;51.472;5.712;2022-11-15T10:45:56;100445.47;;;10.40;100.00
42105;BME280;61464;51.472;5.712;2022-11-15T10:49:23;100448.34;;;10.45;99.97
42105;BME280;61464;51.472;5.712;2022-11-15T10:52:45;100428.72;;;10.51;100.00
42105;BME280;61464;51.472;5.712;2022-11-15T10:55:38;100429.84;;;10.57;100.00
42105;BME280;61464;51.472;5.712;2022-11-15T10:58:39;100435.34;;;10.62;100.00
42105;BME280;61464;51.472;5.712;2022-11-15T11:01:28;100429.22;;;10.55;98.99
42105;BME280;61464;51.472;5.712;2022-11-15T11:04:07;100431.00;;;10.62;98.71
42105;BME280;61464;51.472;5.712;2022-11-15T11:10:04;100411.03;;;10.55;99.60
42105;BME280;61464;51.472;5.712;2022-11-15T11:12:37;100404.72;;;10.49;99.41
42105;BME280;61464;51.472;5.712;2022-11-15T11:15:15;100407.00;;;10.52;99.49
42105;BME280;61464;51.472;5.712;2022-11-15T11:18:13;100404.72;;;10.57;99.85
42105;BME280;61464;51.472;5.712;2022-11-15T11:54:55;100328.66;;;11.57;86.38
42105;BME280;61464;51.472;5.712;2022-11-15T12:00:33;100318.09;;;11.59;86.18
42105;BME280;61464;51.472;5.712;2022-11-15T12:17:38;100290.06;;;11.84;84.26
42105;BME280;61464;51.472;5.712;2022-11-15T12:24:34;100287.19;;;11.79;84.36
42105;BME280;61464;51.472;5.712;2022-11-15T15:51:35;99958.81;;;11.27;84.12
42105;BME280;61464;51.472;5.712;2022-11-15T16:09:36;99935.44;;;11.27;85.84
42105;BME280;61464;51.472;5.712;2022-11-15T16:49:56;99944.00;;;10.61;100.00
42105;BME280;61464;51.472;5.712;2022-11-15T16:53:12;99944.03;;;10.23;100.00
42105;BME280;61464;51.472;5.712;2022-11-15T16:56:01;99951.97;;;10.07;100.00
42105;BME280;61464;51.472;5.712;2022-11-15T16:58:31;99946.66;;;10.00;100.00
42105;BME280;61464;51.472;5.712;2022-11-15T17:01:02;99947.97;;;9.96;100.00
42105;BME280;61464;51.472;5.712;2022-11-15T17:24:01;99920.50;;;9.87;100.00
42105;BME280;61464;51.472;5.712;2022-11-15T17:29:34;99923.75;;;9.89;100.00
42105;BME280;61464;51.472;5.712;2022-11-15T17:42:04;99917.56;;;9.90;100.00
42105;BME280;61464;51.472;5.712;2022-11-15T17:44:37;99909.97;;;9.89;100.00
42105;BME280;61464;51.472;5.712;2022-11-15T17:47:06;99900.56;;;9.87;100.00
42105;BME280;61464;51.472;5.712;2022-11-15T17:49:35;99907.81;;;9.92;100.00
42105;BME280;61464;51.472;5.712;2022-11-15T17:52:05;99899.72;;;9.95;100.00
42105;BME280;61464;51.472;5.712;2022-11-15T17:54:40;99907.19;;;9.90;100.00
42105;BME280;61464;51.472;5.712;2022-11-15T18:13:42;99891.22;;;10.01;100.00
42105;BME280;61464;51.472;5.712;2022-11-15T18:16:33;99885.41;;;9.99;100.00
42105;BME280;61464;51.472;5.712;2022-11-15T18:19:13;99880.06;;;10.01;100.00
42105;BME280;61464;51.472;5.712;2022-11-15T18:21:48;99884.78;;;9.97;100.00
42105;BME280;61464;51.472;5.712;2022-11-15T18:24:53;99872.09;;;10.02;100.00
42105;BME280;61464;51.472;5.712;2022-11-15T18:33:59;99872.28;;;10.01;100.00
42105;BME280;61464;51.472;5.712;2022-11-15T18:36:30;99865.41;;;10.08;100.00
42105;BME280;61464;51.472;5.712;2022-11-15T18:39:08;99870.03;;;10.13;100.00
42105;BME280;61464;51.472;5.712;2022-11-15T18:42:07;99861.84;;;10.09;100.00
42105;BME280;61464;51.472;5.712;2022-11-15T18:48:00;99854.22;;;10.07;100.00
42105;BME280;61464;51.472;5.712;2022-11-15T18:56:25;99870.50;;;10.16;100.00
42105;BME280;61464;51.472;5.712;2022-11-15T18:59:30;99856.44;;;10.11;100.00
42105;BME280;61464;51.472;5.712;2022-11-15T19:02:01;99849.28;;;10.13;100.00
42105;BME280;61464;51.472;5.712;2022-11-15T19:04:27;99860.75;;;10.18;100.00
42105;BME280;61464;51.472;5.712;2022-11-15T19:06:58;99848.16;;;10.15;100.00
42105;BME280;61464;51.472;5.712;2022-11-15T19:09:30;99846.19;;;10.17;100.00
42105;BME280;61464;51.472;5.712;2022-11-15T19:12:02;99846.81;;;10.19;100.00
42105;BME280;61464;51.472;5.712;2022-11-15T19:14:32;99843.41;;;10.19;100.00
42105;BME280;61464;51.472;5.712;2022-11-15T19:17:08;99846.44;;;10.22;100.00
42105;BME280;61464;51.472;5.712;2022-11-15T19:19:40;99855.47;;;10.26;100.00
42105;BME280;61464;51.472;5.712;2022-11-15T19:22:06;99839.91;;;10.26;100.00
42105;BME280;61464;51.472;5.712;2022-11-15T19:24:34;99843.63;;;10.32;100.00
42105;BME280;61464;51.472;5.712;2022-11-15T19:27:10;99842.34;;;10.28;100.00
42105;BME280;61464;51.472;5.712;2022-11-15T19:29:39;99842.00;;;10.31;100.00
42105;BME280;61464;51.472;5.712;2022-11-15T19:32:11;99844.25;;;10.34;100.00
42105;BME280;61464;51.472;5.712;2022-11-15T19:34:37;99839.06;;;10.34;100.00
42105;BME280;61464;51.472;5.712;2022-11-15T19:37:06;99838.06;;;10.35;100.00
42105;BME280;61464;51.472;5.712;2022-11-15T19:39:33;99839.69;;;10.36;100.00
42105;BME280;61464;51.472;5.712;2022-11-15T19:41:59;99837.91;;;10.37;100.00
42105;BME280;61464;51.472;5.712;2022-11-15T19:44:28;99827.88;;;10.34;100.00
42105;BME280;61464;51.472;5.712;2022-11-15T19:46:54;99834.50;;;10.36;100.00
42105;BME280;61464;51.472;5.712;2022-11-15T19:49:20;99821.25;;;10.31;100.00
42105;BME280;61464;51.472;5.712;2022-11-15T19:51:46;99822.06;;;10.32;100.00
42105;BME280;61464;51.472;5.712;2022-11-15T19:54:13;99815.41;;;10.29;100.00
42105;BME280;61464;51.472;5.712;2022-11-15T19:56:41;99813.66;;;10.30;100.00
42105;BME280;61464;51.472;5.712;2022-11-15T19:59:08;99812.19;;;10.27;100.00
42105;BME280;61464;51.472;5.712;2022-11-15T20:01:36;99807.81;;;10.27;100.00
42105;BME280;61464;51.472;5.712;2022-11-15T20:04:05;99809.78;;;10.25;100.00
42105;BME280;61464;51.472;5.712;2022-11-15T20:06:37;99808.78;;;10.26;100.00
42105;BME280;61464;51.472;5.712;2022-11-15T20:09:05;99814.59;;;10.28;100.00
42105;BME280;61464;51.472;5.712;2022-11-15T20:11:35;99812.66;;;10.31;100.00
42105;BME280;61464;51.472;5.712;2022-11-15T20:14:05;99810.69;;;10.33;100.00
42105;BME280;61464;51.472;5.712;2022-11-15T20:16:34;99807.31;;;10.32;100.00
42105;BME280;61464;51.472;5.712;2022-11-15T20:19:00;99799.69;;;10.31;100.00
42105;BME280;61464;51.472;5.712;2022-11-15T20:22:06;99807.47;;;10.31;100.00
42105;BME280;61464;51.472;5.712;2022-11-15T20:24:33;99794.03;;;10.27;100.00
42105;BME280;61464;51.472;5.712;2022-11-15T20:27:05;99799.34;;;10.34;100.00
42105;BME280;61464;51.472;5.712;2022-11-15T20:29:39;99785.75;;;10.32;100.00
42105;BME280;61464;51.472;5.712;2022-11-15T20:32:12;99791.56;;;10.34;100.00
42105;BME280;61464;51.472;5.712;2022-11-15T20:35:06;99794.59;;;10.37;100.00
42105;BME280;61464;51.472;5.712;2022-11-15T20:37:50;99778.59;;;10.34;100.00
42105;BME280;61464;51.472;5.712;2022-11-15T20:40:27;99787.19;;;10.34;100.00
42105;BME280;61464;51.472;5.712;2022-11-15T20:42:53;99788.78;;;10.35;100.00
42105;BME280;61464;51.472;5.712;2022-11-15T20:48:23;99784.03;;;10.39;100.00
42105;BME280;61464;51.472;5.712;2022-11-15T20:57:18;99764.63;;;10.35;100.00
42105;BME280;61464;51.472;5.712;2022-11-15T21:00:29;99768.66;;;10.37;100.00
42105;BME280;61464;51.472;5.712;2022-11-15T21:09:31;99754.09;;;10.36;100.00
42105;BME280;61464;51.472;5.712;2022-11-15T21:12:28;99760.50;;;10.40;100.00
42105;BME280;61464;51.472;5.712;2022-11-15T21:26:23;99754.09;;;10.36;100.00
42105;BME280;61464;51.472;5.712;2022-11-15T21:29:15;99757.31;;;10.38;100.00
42105;BME280;61464;51.472;5.712;2022-11-15T21:31:55;99746.47;;;10.35;100.00
42105;BME280;61464;51.472;5.712;2022-11-15T21:34:25;99745.91;;;10.39;100.00
42105;BME280;61464;51.472;5.712;2022-11-15T21:36:55;99731.53;;;10.37;100.00
42105;BME280;61464;51.472;5.712;2022-11-15T21:39:22;99741.56;;;10.40;100.00
42105;BME280;61464;51.472;5.712;2022-11-15T21:41:48;99733.16;;;10.38;100.00
42105;BME280;61464;51.472;5.712;2022-11-15T21:44:17;99736.56;;;10.38;100.00
42105;BME280;61464;51.472;5.712;2022-11-15T21:46:49;99729.94;;;10.36;100.00
42105;BME280;61464;51.472;5.712;2022-11-15T21:55:27;99716.16;;;10.35;100.00
42105;BME280;61464;51.472;5.712;2022-11-15T21:58:30;99721.94;;;10.37;100.00
42105;BME280;61464;51.472;5.712;2022-11-15T22:00:59;99707.56;;;10.35;100.00
42105;BME280;61464;51.472;5.712;2022-11-15T22:03:45;99703.38;;;10.34;100.00
42105;BME280;61464;51.472;5.712;2022-11-15T22:06:17;99702.56;;;10.33;100.00
42105;BME280;61464;51.472;5.712;2022-11-15T22:08:48;99702.81;;;10.38;100.00
42105;BME280;61464;51.472;5.712;2022-11-15T22:11:18;99697.81;;;10.37;100.00
42105;BME280;61464;51.472;5.712;2022-11-15T22:13:44;99703.44;;;10.40;100.00
42105;BME280;61464;51.472;5.712;2022-11-15T22:16:11;99704.63;;;10.38;100.00
42105;BME280;61464;51.472;5.712;2022-11-15T22:18:38;99701.81;;;10.39;100.00
42105;BME280;61464;51.472;5.712;2022-11-15T22:21:08;99693.25;;;10.39;100.00
42105;BME280;61464;51.472;5.712;2022-11-15T22:23:37;99685.28;;;10.40;100.00
42105;BME280;61464;51.472;5.712;2022-11-15T22:26:40;99690.47;;;10.40;100.00
42105;BME280;61464;51.472;5.712;2022-11-15T22:29:14;99682.94;;;10.45;100.00
42105;BME280;61464;51.472;5.712;2022-11-15T22:31:43;99682.13;;;10.45;100.00
42105;BME280;61464;51.472;5.712;2022-11-15T22:34:09;99682.94;;;10.45;100.00
42105;BME280;61464;51.472;5.712;2022-11-15T22:36:35;99683.75;;;10.46;100.00
42105;BME280;61464;51.472;5.712;2022-11-15T22:39:01;99677.75;;;10.45;100.00
42105;BME280;61464;51.472;5.712;2022-11-15T22:41:28;99683.38;;;10.49;100.00
42105;BME280;61464;51.472;5.712;2022-11-15T22:43:54;99678.81;;;10.51;100.00
42105;BME280;61464;51.472;5.712;2022-11-15T22:46:20;99676.59;;;10.48;100.00
42105;BME280;61464;51.472;5.712;2022-11-15T22:48:46;99681.03;;;10.54;100.00
42105;BME280;61464;51.472;5.712;2022-11-15T22:51:19;99667.00;;;10.49;100.00
42105;BME280;61464;51.472;5.712;2022-11-15T22:53:49;99668.97;;;10.46;100.00
42105;BME280;61464;51.472;5.712;2022-11-15T22:56:18;99665.03;;;10.51;100.00
42105;BME280;61464;51.472;5.712;2022-11-15T22:58:44;99667.44;;;10.52;100.00
42105;BME280;61464;51.472;5.712;2022-11-15T23:01:20;99663.06;;;10.53;100.00
42105;BME280;61464;51.472;5.712;2022-11-15T23:03:47;99663.69;;;10.55;100.00
42105;BME280;61464;51.472;5.712;2022-11-15T23:06:12;99663.50;;;10.56;100.00
42105;BME280;61464;51.472;5.712;2022-11-15T23:08:38;99651.88;;;10.52;100.00
42105;BME280;61464;51.472;5.712;2022-11-15T23:11:04;99653.84;;;10.50;100.00
42105;BME280;61464;51.472;5.712;2022-11-15T23:13:50;99649.47;;;10.51;100.00
42105;BME280;61464;51.472;5.712;2022-11-15T23:16:20;99637.91;;;10.53;100.00
42105;BME280;61464;51.472;5.712;2022-11-15T23:18:56;62788.34;;;-146.16;100.00
42105;BME280;61464;51.472;5.712;2022-11-15T23:21:32;62788.34;;;-146.16;100.00
42105;BME280;61464;51.472;5.712;2022-11-15T23:24:17;62788.34;;;-146.16;100.00
42105;BME280;61464;51.472;5.712;2022-11-15T23:26:46;62788.34;;;-146.16;100.00
42105;BME280;61464;51.472;5.712;2022-11-15T23:29:18;62788.34;;;-146.16;100.00
42105;BME280;61464;51.472;5.712;2022-11-15T23:31:44;62788.34;;;-146.16;100.00
42105;BME280;61464;51.472;5.712;2022-11-15T23:34:30;62788.34;;;-146.16;100.00
42105;BME280;61464;51.472;5.712;2022-11-15T23:36:58;62788.34;;;-146.16;100.00
42105;BME280;61464;51.472;5.712;2022-11-15T23:39:29;62788.34;;;-146.16;100.00
42105;BME280;61464;51.472;5.712;2022-11-15T23:42:16;62788.34;;;-146.16;100.00
42105;BME280;61464;51.472;5.712;2022-11-15T23:44:44;62788.34;;;-146.16;100.00
42105;BME280;61464;51.472;5.712;2022-11-15T23:47:10;62788.34;;;-146.16;100.00
42105;BME280;61464;51.472;5.712;2022-11-15T23:49:39;62788.34;;;-146.16;100.00
42105;BME280;61464;51.472;5.712;2022-11-15T23:52:05;62788.34;;;-146.16;100.00
42105;BME280;61464;51.472;5.712;2022-11-15T23:54:30;62788.34;;;-146.16;100.00
42105;BME280;61464;51.472;5.712;2022-11-15T23:57:00;62788.34;;;-146.16;100.00
42105;BME280;61464;51.472;5.712;2022-11-15T23:59:26;62788.34;;;-146.16;100.00
